Woodrow, CO (80757)

2:08 AM MST on February 01, 2015 (GMT -0700)
APRSWXNET Fort Morgan CO US | Change Station
CLOSE
Current Station
Personal Weather Station
Location: Fort Morgan, CO
Elevation: 4379 ft
Nearby Weather Stations

Elev 4379 ft 40.15 °N, 103.79 °W | Updated 47 minutes ago

Overcast
Overcast
28 °F
Feels Like 18 °F
N
12
Wind Variable Wind from NNW
Gusts 19.0 mph

Today
High -- | Low -- °F
--% Chance of Precip.
Yesterday
High -- | Low -- °F
Precip. -- in
7:02 AM 5:13 PM
Waxing Gibbous, 94% visible
Pressure 30.10 in
Visibility 10.0 miles
Clouds Overcast 600 ft
Windchill 18 °F
Dew Point 25 °F
Humidity 89%
Rainfall 0.00 in
Snow Depth Not available.
UV 0 out of 12
Pollen .30 out of 12
Air Quality Not available.
Flu Activity Not available.
METAR KAKO 010853Z AUTO 35020KT 10SM OVC006 M06/M06 A3001 RMK AO2 PK WND 36028/0823 SLP191 I3001 T10561061 51024

More Conditions Fewer Conditions

Pressure 30.10 in
Visibility 10.0 miles
Clouds Overcast 600 ft
Windchill 18 °F
Dew Point 25 °F
Humidity 89%
Rainfall 0.00 in
Snow Depth Not available.
UV 0 out of 12
Pollen .30 out of 12
Air Quality Not available.
Flu Activity Not available.
METAR KAKO 010853Z AUTO 35020KT 10SM OVC006 M06/M06 A3001 RMK AO2 PK WND 36028/0823 SLP191 I3001 T10561061 51024

More Conditions Fewer Conditions

10-Day Weather Forecast

Almanac

Astronomy

Feb. 01, 2015 Rise Set
Actual Time
Civil Twilight
Nautical Twilight
Astronomical Twilight
Moon
Length of Visible Light
Length of Day
Tomorrow will be .
, % of the Moon is Illuminated

Today's Extremes

State Highs State Lows

Community

WunderPhotos

Upload Photos

1,792,338 photos uploaded!

WunderBlogs® & News

Nearby

Air Quality

  Air Quality AQ Index Pollutant
Not available.

Snow Depth

Station Depth Elevation

Earthquake Activity

City Distance Mag. Time & Date
Minimum magnitude displayed is 2.5.

Coastal Water Temperatures

Place Temperature

Nearby Weather Stations